Time;durP1;ratioP1;P1;durP2;ratioP2;P2;SDS_P1;SDS_P2;PMS_P1;PMS_P2;Temp;Humidity;BMP_temperature;BMP_pressure;BME280_temperature;BME280_humidity;BME280_pressure;Samples;Min_cycle;Max_cycle;Signal;HPM_P1;HPM_P2
2021/10/17 00:00:05;;;;;;;5.88;2.35;;;;;;;;;;5074445;28;20051;-65
2021/10/17 00:02:31;;;;;;;6.68;2.28;;;;;;;;;;5074264;28;20476;-64
2021/10/17 00:04:57;;;;;;;4.78;2.10;;;;;;;;;;5055406;28;20020;-64
2021/10/17 00:07:23;;;;;;;4.75;2.10;;;;;;;;;;5072760;28;20387;-64
2021/10/17 00:09:49;;;;;;;9.05;2.45;;;;;;;;;;5074236;28;20070;-63
2021/10/17 00:12:15;;;;;;;7.93;2.33;;;;;;;;;;5074246;28;20055;-63
2021/10/17 00:14:41;;;;;;;6.18;2.25;;;;;;;;;;5074216;28;20028;-64
2021/10/17 00:17:07;;;;;;;9.18;1.80;;;;;;;;;;5074203;28;20029;-64
2021/10/17 00:19:34;;;;;;;4.18;2.00;;;;;;;;;;5074027;28;20032;-64
2021/10/17 00:22:00;;;;;;;4.60;2.03;;;;;;;;;;5073781;28;20040;-64
2021/10/17 00:24:26;;;;;;;6.90;2.30;;;;;;;;;;5074164;28;20085;-64
2021/10/17 00:26:51;;;;;;;3.45;2.22;;;;;;;;;;5073347;28;20545;-64
2021/10/17 00:29:17;;;;;;;4.55;2.33;;;;;;;;;;5073707;28;20025;-64
2021/10/17 00:31:43;;;;;;;4.07;2.00;;;;;;;;;;5073759;28;20071;-64
2021/10/17 00:34:09;;;;;;;7.97;2.30;;;;;;;;;;5072568;28;20028;-63
2021/10/17 00:36:36;;;;;;;3.80;2.10;;;;;;;;;;5073844;28;20021;-64
2021/10/17 00:39:02;;;;;;;4.28;2.00;;;;;;;;;;5055655;28;20051;-64
2021/10/17 00:41:32;;;;;;;5.75;1.95;;;;;;;;;;5053790;28;20025;-63
2021/10/17 00:43:58;;;;;;;4.13;2.35;;;;;;;;;;5069755;28;20056;-64
2021/10/17 00:46:24;;;;;;;6.63;1.85;;;;;;;;;;5073751;28;20028;-63
2021/10/17 00:48:50;;;;;;;3.45;1.83;;;;;;;;;;5072041;28;20028;-64
2021/10/17 00:51:17;;;;;;;4.25;1.83;;;;;;;;;;5073343;28;20111;-63
2021/10/17 00:53:43;;;;;;;4.57;1.80;;;;;;;;;;5072294;28;20024;-64
2021/10/17 00:56:09;;;;;;;4.72;2.13;;;;;;;;;;5073409;28;20028;-64
2021/10/17 00:58:35;;;;;;;6.07;2.22;;;;;;;;;;5058647;28;20032;-63
2021/10/17 01:01:01;;;;;;;7.20;2.30;;;;;;;;;;5053331;28;20053;-63
2021/10/17 01:03:27;;;;;;;6.50;1.65;;;;;;;;;;5065188;28;20103;-64
2021/10/17 01:05:54;;;;;;;2.40;1.65;;;;;;;;;;5073376;28;20155;-63
2021/10/17 01:08:20;;;;;;;5.50;1.92;;;;;;;;;;5072293;28;20040;-63
2021/10/17 01:10:46;;;;;;;6.00;2.10;;;;;;;;;;5073141;28;20245;-64
2021/10/17 01:13:16;;;;;;;7.60;2.10;;;;;;;;;;5071944;28;20356;-64
2021/10/17 01:15:42;;;;;;;4.25;2.05;;;;;;;;;;5073000;28;20033;-63
2021/10/17 01:18:08;;;;;;;5.75;2.00;;;;;;;;;;5068844;28;20364;-63
2021/10/17 01:20:34;;;;;;;5.13;1.80;;;;;;;;;;5072630;28;20125;-63
2021/10/17 01:23:01;;;;;;;3.75;1.90;;;;;;;;;;5072778;28;20040;-63
2021/10/17 01:25:27;;;;;;;6.35;2.20;;;;;;;;;;5072759;28;20031;-63
2021/10/17 01:27:53;;;;;;;5.68;1.92;;;;;;;;;;5072498;28;20032;-63
2021/10/17 01:30:19;;;;;;;7.65;2.10;;;;;;;;;;5072781;28;20024;-63
2021/10/17 01:32:45;;;;;;;6.05;1.98;;;;;;;;;;5072519;28;20428;-63
2021/10/17 01:35:11;;;;;;;6.15;2.00;;;;;;;;;;5072642;28;20029;-63
2021/10/17 01:37:37;;;;;;;5.88;2.20;;;;;;;;;;5053949;28;20029;-63
2021/10/17 01:40:04;;;;;;;4.75;1.92;;;;;;;;;;5072286;28;20028;-63
2021/10/17 01:42:30;;;;;;;6.95;2.40;;;;;;;;;;5072414;28;20044;-63
2021/10/17 01:44:56;;;;;;;4.80;1.85;;;;;;;;;;5072476;28;20056;-63
2021/10/17 01:47:22;;;;;;;3.67;1.85;;;;;;;;;;5072665;28;20139;-63
2021/10/17 01:49:48;;;;;;;4.88;2.00;;;;;;;;;;5071236;28;20052;-64
2021/10/17 01:52:14;;;;;;;4.53;1.85;;;;;;;;;;5072507;28;20083;-64
2021/10/17 01:54:40;;;;;;;3.47;2.35;;;;;;;;;;5072364;28;20071;-63
2021/10/17 01:57:08;;;;;;;4.35;1.95;;;;;;;;;;5072391;28;20103;-64
2021/10/17 01:59:34;;;;;;;4.00;1.77;;;;;;;;;;5072041;28;20124;-63
2021/10/17 02:02:00;;;;;;;2.67;1.90;;;;;;;;;;5072200;28;20098;-63
2021/10/17 02:04:26;;;;;;;2.80;1.80;;;;;;;;;;5072261;28;20097;-63
2021/10/17 02:06:52;;;;;;;5.30;2.08;;;;;;;;;;5072238;28;20036;-64
2021/10/17 02:09:18;;;;;;;3.95;1.95;;;;;;;;;;5071955;28;20031;-63
2021/10/17 02:11:44;;;;;;;3.80;1.75;;;;;;;;;;5071066;28;20032;-63
2021/10/17 02:14:09;;;;;;;5.28;1.60;;;;;;;;;;5072168;28;20063;-63
2021/10/17 02:16:35;;;;;;;3.55;1.90;;;;;;;;;;5072164;28;20116;-64
2021/10/17 02:19:01;;;;;;;3.92;1.83;;;;;;;;;;5072240;28;20021;-64
2021/10/17 02:21:27;;;;;;;4.80;2.08;;;;;;;;;;5072134;28;20371;-63
2021/10/17 02:23:53;;;;;;;8.07;1.85;;;;;;;;;;5071733;28;20029;-64
2021/10/17 02:26:19;;;;;;;3.75;2.05;;;;;;;;;;5072071;28;20082;-64
2021/10/17 02:28:45;;;;;;;3.25;2.00;;;;;;;;;;5071807;28;20019;-63
2021/10/17 02:31:11;;;;;;;5.70;1.83;;;;;;;;;;5072117;28;20058;-63
2021/10/17 02:33:39;;;;;;;3.13;1.98;;;;;;;;;;5071533;28;20067;-63
2021/10/17 02:36:05;;;;;;;5.75;2.00;;;;;;;;;;5071951;28;20115;-63
2021/10/17 02:38:31;;;;;;;4.55;1.95;;;;;;;;;;5071710;28;20025;-63
2021/10/17 02:40:57;;;;;;;4.60;1.65;;;;;;;;;;5071788;28;20066;-63
2021/10/17 02:43:23;;;;;;;8.35;2.17;;;;;;;;;;5070921;28;20068;-63
2021/10/17 02:45:50;;;;;;;8.05;1.90;;;;;;;;;;5053748;28;20037;-63
2021/10/17 02:48:16;;;;;;;4.15;1.83;;;;;;;;;;5071929;28;20029;-63
2021/10/17 02:50:42;;;;;;;7.28;2.05;;;;;;;;;;5074944;28;20028;-63
2021/10/17 02:53:08;;;;;;;5.75;1.98;;;;;;;;;;5076089;28;20096;-63
2021/10/17 02:55:34;;;;;;;5.20;1.65;;;;;;;;;;5075838;28;20032;-64
2021/10/17 02:58:00;;;;;;;5.18;1.83;;;;;;;;;;5075638;28;20037;-63
2021/10/17 03:00:26;;;;;;;4.15;1.70;;;;;;;;;;5074001;28;20123;-63
2021/10/17 03:02:52;;;;;;;2.63;1.60;;;;;;;;;;5075559;28;20509;-64
2021/10/17 03:05:18;;;;;;;5.32;1.70;;;;;;;;;;5075334;28;20032;-63
2021/10/17 03:07:44;;;;;;;6.40;1.73;;;;;;;;;;5075626;28;20498;-63
2021/10/17 03:10:10;;;;;;;3.45;1.80;;;;;;;;;;5075407;28;20040;-63
2021/10/17 03:12:36;;;;;;;2.58;1.70;;;;;;;;;;5057513;28;20033;-64
2021/10/17 03:15:03;;;;;;;2.88;1.52;;;;;;;;;;5075167;28;20361;-64
2021/10/17 03:17:29;;;;;;;5.45;1.90;;;;;;;;;;5075279;28;20017;-63
2021/10/17 03:19:55;;;;;;;6.10;2.10;;;;;;;;;;5075316;28;20422;-63
2021/10/17 03:22:21;;;;;;;3.50;1.83;;;;;;;;;;5075034;28;20047;-64
2021/10/17 03:24:47;;;;;;;4.20;1.80;;;;;;;;;;5075073;28;20576;-64
2021/10/17 03:27:13;;;;;;;5.20;1.85;;;;;;;;;;5075006;28;20143;-63
2021/10/17 03:29:39;;;;;;;3.42;1.75;;;;;;;;;;5074883;28;20107;-64
2021/10/17 03:32:05;;;;;;;4.10;1.75;;;;;;;;;;5075296;28;20035;-63
2021/10/17 03:34:31;;;;;;;3.45;1.63;;;;;;;;;;5075375;28;20035;-63
2021/10/17 03:36:57;;;;;;;4.20;1.83;;;;;;;;;;5056999;28;20025;-64
2021/10/17 03:39:23;;;;;;;5.22;1.65;;;;;;;;;;5074899;28;20044;-65
2021/10/17 03:41:49;;;;;;;5.10;1.90;;;;;;;;;;5074571;28;20100;-63
2021/10/17 03:44:15;;;;;;;3.72;1.60;;;;;;;;;;5074705;28;20464;-63
2021/10/17 03:46:41;;;;;;;7.78;1.52;;;;;;;;;;5073789;28;20060;-63
2021/10/17 03:49:07;;;;;;;2.38;1.40;;;;;;;;;;5074694;28;20039;-64
2021/10/17 03:51:33;;;;;;;5.25;1.60;;;;;;;;;;5074918;28;20096;-64
2021/10/17 03:53:59;;;;;;;3.95;1.40;;;;;;;;;;5074941;28;20017;-63
2021/10/17 03:56:25;;;;;;;4.38;1.60;;;;;;;;;;5074917;28;20020;-64
2021/10/17 03:58:51;;;;;;;4.47;1.50;;;;;;;;;;5074605;28;20024;-64
2021/10/17 04:01:17;;;;;;;5.35;1.80;;;;;;;;;;5073209;28;20085;-64
2021/10/17 04:03:43;;;;;;;4.32;1.60;;;;;;;;;;5055795;28;20035;-64
2021/10/17 04:06:09;;;;;;;3.38;1.73;;;;;;;;;;5074505;28;20452;-64
2021/10/17 04:08:35;;;;;;;8.38;1.88;;;;;;;;;;5074489;28;20060;-64
2021/10/17 04:11:01;;;;;;;8.63;1.73;;;;;;;;;;5074185;28;20020;-63
2021/10/17 04:13:27;;;;;;;3.60;1.75;;;;;;;;;;5074147;28;20032;-64
2021/10/17 04:15:53;;;;;;;6.70;2.15;;;;;;;;;;5074251;28;20044;-64
2021/10/17 04:18:19;;;;;;;9.32;1.75;;;;;;;;;;5074250;28;20020;-64
2021/10/17 04:20:45;;;;;;;7.65;1.98;;;;;;;;;;5074215;28;20078;-63
2021/10/17 04:23:11;;;;;;;3.25;1.73;;;;;;;;;;5073961;28;20039;-63
2021/10/17 04:25:37;;;;;;;5.50;1.60;;;;;;;;;;5073648;28;20032;-63
2021/10/17 04:28:03;;;;;;;5.03;2.30;;;;;;;;;;5072970;28;20024;-64
2021/10/17 04:30:29;;;;;;;20.02;2.30;;;;;;;;;;5073980;28;20032;-63
2021/10/17 04:32:55;;;;;;;22.42;2.55;;;;;;;;;;5073891;28;20094;-64
2021/10/17 04:35:21;;;;;;;17.80;4.00;;;;;;;;;;5073822;28;20066;-64
2021/10/17 04:37:47;;;;;;;16.90;2.60;;;;;;;;;;5056015;28;20379;-64
2021/10/17 04:40:13;;;;;;;16.17;2.30;;;;;;;;;;5056054;28;20031;-64
2021/10/17 04:42:39;;;;;;;14.63;1.75;;;;;;;;;;5073438;28;20032;-63
2021/10/17 04:45:06;;;;;;;19.23;2.17;;;;;;;;;;5073617;28;20024;-63
2021/10/17 04:47:32;;;;;;;10.25;2.00;;;;;;;;;;5073688;28;20024;-63
2021/10/17 04:49:58;;;;;;;9.90;2.10;;;;;;;;;;5073578;28;20104;-64
2021/10/17 04:52:24;;;;;;;16.90;3.00;;;;;;;;;;5073377;28;20107;-63
2021/10/17 04:54:50;;;;;;;13.02;2.17;;;;;;;;;;5073600;28;20464;-64
2021/10/17 04:57:16;;;;;;;8.27;2.03;;;;;;;;;;5073388;28;20040;-63
2021/10/17 04:59:42;;;;;;;8.05;1.80;;;;;;;;;;5073064;28;20045;-63
2021/10/17 05:02:08;;;;;;;14.07;3.55;;;;;;;;;;5072242;28;20037;-64
2021/10/17 05:04:37;;;;;;;8.30;2.10;;;;;;;;;;5073287;28;20024;-64
2021/10/17 05:07:03;;;;;;;6.55;1.75;;;;;;;;;;5073208;28;20059;-63
2021/10/17 05:09:29;;;;;;;13.85;1.92;;;;;;;;;;5073040;28;20055;-64
2021/10/17 05:11:55;;;;;;;12.55;2.05;;;;;;;;;;5072683;28;20028;-64
2021/10/17 05:14:21;;;;;;;5.18;2.20;;;;;;;;;;5073317;28;20464;-63
2021/10/17 05:16:48;;;;;;;19.77;1.90;;;;;;;;;;5072754;28;20032;-64
2021/10/17 05:19:14;;;;;;;8.27;2.13;;;;;;;;;;5073082;28;20477;-64
2021/10/17 05:21:40;;;;;;;8.88;1.98;;;;;;;;;;5072598;28;20036;-64
2021/10/17 05:24:06;;;;;;;3.45;1.45;;;;;;;;;;5073028;28;20120;-63
2021/10/17 05:26:32;;;;;;;6.65;2.00;;;;;;;;;;5072841;28;20552;-64
2021/10/17 05:28:58;;;;;;;14.63;1.83;;;;;;;;;;5060873;28;20029;-64
2021/10/17 05:31:24;;;;;;;7.32;1.95;;;;;;;;;;5071651;28;20032;-64
2021/10/17 05:33:50;;;;;;;16.48;2.03;;;;;;;;;;5072666;28;20036;-64
2021/10/17 05:36:16;;;;;;;9.48;2.10;;;;;;;;;;5072627;28;20494;-64
2021/10/17 05:38:42;;;;;;;6.03;1.98;;;;;;;;;;5072957;28;20372;-63
2021/10/17 05:41:08;;;;;;;8.82;2.00;;;;;;;;;;5072674;28;20040;-63
2021/10/17 05:43:34;;;;;;;6.78;1.75;;;;;;;;;;5072660;28;20021;-63
2021/10/17 05:46:00;;;;;;;12.77;2.22;;;;;;;;;;5072477;28;20035;-63
2021/10/17 05:48:26;;;;;;;15.50;2.00;;;;;;;;;;5072553;28;20468;-63
2021/10/17 05:50:52;;;;;;;18.63;2.67;;;;;;;;;;5072435;28;20027;-63
2021/10/17 05:53:18;;;;;;;22.75;2.45;;;;;;;;;;5072477;28;20035;-63
2021/10/17 05:55:44;;;;;;;9.60;2.00;;;;;;;;;;5072283;28;20024;-63
2021/10/17 05:58:10;;;;;;;20.88;2.00;;;;;;;;;;5072537;28;20032;-62
2021/10/17 06:00:36;;;;;;;16.05;2.08;;;;;;;;;;5072077;28;20384;-63
2021/10/17 06:03:02;;;;;;;13.77;1.90;;;;;;;;;;5071552;28;20090;-63
2021/10/17 06:05:28;;;;;;;12.85;2.28;;;;;;;;;;5054791;28;20021;-63
2021/10/17 06:07:54;;;;;;;25.05;2.25;;;;;;;;;;5072308;28;20025;-64
2021/10/17 06:10:20;;;;;;;9.18;2.00;;;;;;;;;;5072616;28;20031;-64
2021/10/17 06:12:46;;;;;;;10.40;2.50;;;;;;;;;;5071837;28;20107;-63
2021/10/17 06:15:12;;;;;;;13.90;2.58;;;;;;;;;;5071859;28;20475;-63
2021/10/17 06:17:38;;;;;;;18.30;2.42;;;;;;;;;;5072215;28;20028;-64
2021/10/17 06:20:05;;;;;;;19.70;2.47;;;;;;;;;;5071569;28;20031;-64
2021/10/17 06:22:31;;;;;;;18.60;2.33;;;;;;;;;;5071760;28;20032;-63
2021/10/17 06:24:57;;;;;;;19.25;2.33;;;;;;;;;;5071351;28;20414;-64
2021/10/17 06:27:23;;;;;;;19.42;2.17;;;;;;;;;;5072260;28;20093;-64
2021/10/17 06:29:49;;;;;;;26.58;2.58;;;;;;;;;;5072053;28;20024;-64
2021/10/17 06:32:15;;;;;;;11.27;2.35;;;;;;;;;;5071922;28;20081;-63
2021/10/17 06:34:41;;;;;;;26.65;2.17;;;;;;;;;;5063835;28;20033;-64
2021/10/17 06:37:07;;;;;;;17.88;2.53;;;;;;;;;;5051806;28;20029;-64
2021/10/17 06:39:33;;;;;;;14.82;2.30;;;;;;;;;;5051762;28;20027;-64
2021/10/17 06:41:59;;;;;;;11.45;2.50;;;;;;;;;;5051443;28;20029;-64
2021/10/17 06:44:25;;;;;;;39.95;3.38;;;;;;;;;;5051583;28;20017;-64
2021/10/17 06:46:52;;;;;;;9.55;3.00;;;;;;;;;;5051768;28;20433;-64
2021/10/17 06:49:18;;;;;;;12.02;2.95;;;;;;;;;;5051465;28;20036;-64
2021/10/17 06:51:45;;;;;;;11.70;3.58;;;;;;;;;;5051883;28;20025;-66
2021/10/17 06:54:11;;;;;;;24.10;3.25;;;;;;;;;;5051621;28;20021;-64
2021/10/17 06:56:37;;;;;;;10.18;3.20;;;;;;;;;;5051450;28;20032;-64
2021/10/17 06:59:03;;;;;;;10.50;2.88;;;;;;;;;;5051103;28;20048;-65
2021/10/17 07:01:30;;;;;;;9.00;3.05;;;;;;;;;;5051360;28;20036;-63
2021/10/17 07:03:56;;;;;;;9.63;3.15;;;;;;;;;;5051680;28;20025;-64
2021/10/17 07:06:22;;;;;;;12.30;3.65;;;;;;;;;;5051413;28;20389;-64
2021/10/17 07:08:48;;;;;;;6.57;2.85;;;;;;;;;;5038130;28;20036;-64
2021/10/17 07:11:14;;;;;;;8.57;3.08;;;;;;;;;;5071358;28;20053;-63
2021/10/17 07:13:40;;;;;;;10.85;3.30;;;;;;;;;;5071826;28;20028;-64
2021/10/17 07:16:06;;;;;;;7.72;2.88;;;;;;;;;;5071496;28;20051;-63
2021/10/17 07:18:32;;;;;;;5.88;3.22;;;;;;;;;;5071761;28;20040;-64
2021/10/17 07:20:58;;;;;;;8.32;3.20;;;;;;;;;;5071450;28;20060;-64
2021/10/17 07:23:23;;;;;;;7.03;3.40;;;;;;;;;;5069549;28;20056;-64
2021/10/17 07:25:49;;;;;;;7.55;3.22;;;;;;;;;;5071132;28;20493;-63
2021/10/17 07:28:15;;;;;;;7.72;3.50;;;;;;;;;;5070415;28;20028;-65
2021/10/17 07:30:41;;;;;;;13.10;3.75;;;;;;;;;;5071400;28;20024;-63
2021/10/17 07:33:07;;;;;;;5.78;3.38;;;;;;;;;;5070119;28;20032;-63
2021/10/17 07:35:33;;;;;;;9.57;3.72;;;;;;;;;;5071029;28;20067;-64
2021/10/17 07:38:00;;;;;;;6.57;3.10;;;;;;;;;;5072791;28;20460;-64
2021/10/17 07:40:26;;;;;;;10.70;3.53;;;;;;;;;;5074674;28;20048;-63
2021/10/17 07:42:52;;;;;;;7.75;3.05;;;;;;;;;;5073431;28;20063;-64
2021/10/17 07:45:18;;;;;;;6.97;3.22;;;;;;;;;;5074780;28;20048;-63
2021/10/17 07:47:44;;;;;;;12.68;3.40;;;;;;;;;;5073641;28;20039;-66
2021/10/17 07:50:10;;;;;;;28.70;3.63;;;;;;;;;;5074691;28;20025;-63
2021/10/17 07:52:43;;;;;;;33.50;3.33;;;;;;;;;;5072851;28;20020;-64
2021/10/17 07:55:14;;;;;;;18.95;3.55;;;;;;;;;;5056305;28;20478;-67
2021/10/17 07:57:47;;;;;;;13.23;3.42;;;;;;;;;;5070314;28;20480;-66
2021/10/17 08:00:13;;;;;;;12.95;3.13;;;;;;;;;;5074807;28;20480;-71
2021/10/17 08:02:39;;;;;;;22.05;3.60;;;;;;;;;;5055678;28;20081;-66
2021/10/17 08:05:06;;;;;;;11.02;3.38;;;;;;;;;;5068691;28;20017;-68
2021/10/17 08:07:31;;;;;;;13.95;3.30;;;;;;;;;;5072847;28;20027;-65
2021/10/17 08:09:57;;;;;;;10.73;3.13;;;;;;;;;;5073628;28;20029;-65
2021/10/17 08:12:23;;;;;;;11.45;3.50;;;;;;;;;;5072571;28;20027;-66
2021/10/17 08:14:49;;;;;;;13.77;3.50;;;;;;;;;;5073688;28;20434;-68
2021/10/17 08:17:15;;;;;;;25.45;3.20;;;;;;;;;;5072520;28;20051;-66
2021/10/17 08:19:41;;;;;;;10.77;3.92;;;;;;;;;;5073969;28;20096;-66
2021/10/17 08:22:07;;;;;;;19.55;3.65;;;;;;;;;;5070955;28;20037;-66
2021/10/17 08:24:33;;;;;;;18.17;3.78;;;;;;;;;;5053949;28;20464;-64
2021/10/17 08:26:59;;;;;;;38.83;3.70;;;;;;;;;;5054495;28;20021;-65
2021/10/17 08:29:25;;;;;;;38.00;3.53;;;;;;;;;;5053688;28;20049;-65
2021/10/17 08:31:51;;;;;;;16.27;3.45;;;;;;;;;;5053616;28;20782;-66
2021/10/17 08:34:17;;;;;;;27.33;3.20;;;;;;;;;;5072780;28;20036;-64
2021/10/17 08:36:43;;;;;;;13.82;3.30;;;;;;;;;;5072898;28;20035;-64
2021/10/17 08:39:09;;;;;;;22.92;3.33;;;;;;;;;;5070597;28;20431;-65
2021/10/17 08:41:35;;;;;;;14.57;3.10;;;;;;;;;;5073063;28;20028;-65
2021/10/17 08:44:02;;;;;;;13.38;2.90;;;;;;;;;;5071928;28;20021;-68
2021/10/17 08:46:29;;;;;;;26.00;3.35;;;;;;;;;;5073087;28;20025;-66
2021/10/17 08:48:56;;;;;;;14.95;3.42;;;;;;;;;;5071859;28;20020;-65
2021/10/17 08:51:25;;;;;;;17.42;3.55;;;;;;;;;;5073127;28;20565;-65
2021/10/17 08:53:51;;;;;;;12.43;3.20;;;;;;;;;;5072102;28;20048;-64
2021/10/17 08:56:17;;;;;;;17.02;3.33;;;;;;;;;;5055398;28;20029;-66
2021/10/17 08:58:43;;;;;;;14.07;3.20;;;;;;;;;;5060347;28;20028;-64
2021/10/17 09:01:10;;;;;;;15.73;3.50;;;;;;;;;;5072693;28;20045;-65
2021/10/17 09:03:36;;;;;;;33.20;3.22;;;;;;;;;;5055287;28;20025;-65
2021/10/17 09:06:15;;;;;;;13.93;3.15;;;;;;;;;;5066556;28;20384;-65
2021/10/17 09:08:42;;;;;;;14.88;2.83;;;;;;;;;;5071723;28;20028;-65
2021/10/17 09:11:08;;;;;;;21.25;3.53;;;;;;;;;;5054931;28;20428;-65
2021/10/17 09:13:34;;;;;;;17.80;3.20;;;;;;;;;;5071974;28;20054;-65
2021/10/17 09:16:00;;;;;;;22.23;3.28;;;;;;;;;;5072741;28;20105;-65
2021/10/17 09:18:34;;;;;;;21.83;3.08;;;;;;;;;;5071503;28;20599;-65
2021/10/17 09:21:03;;;;;;;13.45;3.20;;;;;;;;;;5070955;28;20063;-65
2021/10/17 09:23:29;;;;;;;11.35;2.75;;;;;;;;;;5071655;28;20048;-65
2021/10/17 09:25:57;;;;;;;20.83;3.17;;;;;;;;;;5073067;28;20036;-64
2021/10/17 09:28:27;;;;;;;10.05;2.85;;;;;;;;;;5071915;28;20055;-63
2021/10/17 09:31:03;;;;;;;15.52;3.08;;;;;;;;;;5072819;28;20024;-63
2021/10/17 09:33:29;;;;;;;13.70;3.10;;;;;;;;;;5071288;28;20487;-65
2021/10/17 09:35:55;;;;;;;24.27;3.92;;;;;;;;;;5072059;28;20478;-66
2021/10/17 09:38:24;;;;;;;13.75;3.80;;;;;;;;;;5071552;28;20024;-66
2021/10/17 09:40:50;;;;;;;17.58;3.15;;;;;;;;;;5072279;28;20031;-65
2021/10/17 09:43:26;;;;;;;14.55;3.33;;;;;;;;;;5071026;28;20036;-65
2021/10/17 09:46:06;;;;;;;14.48;3.35;;;;;;;;;;5070018;28;20028;-65
2021/10/17 09:48:32;;;;;;;11.32;3.70;;;;;;;;;;5071325;28;20476;-64
2021/10/17 09:51:01;;;;;;;15.13;3.38;;;;;;;;;;5071499;28;20047;-63
2021/10/17 09:53:40;;;;;;;16.60;3.17;;;;;;;;;;5070579;28;20062;-63
2021/10/17 09:56:07;;;;;;;10.02;3.20;;;;;;;;;;5078668;28;20020;-63
2021/10/17 09:58:33;;;;;;;12.80;3.20;;;;;;;;;;5083861;28;20435;-64
2021/10/17 10:01:00;;;;;;;16.13;3.58;;;;;;;;;;5091493;28;20055;-63
2021/10/17 10:03:31;;;;;;;32.50;4.13;;;;;;;;;;5077851;28;20028;-63
2021/10/17 10:05:57;;;;;;;13.85;3.60;;;;;;;;;;5054081;28;20064;-63
2021/10/17 10:08:27;;;;;;;34.55;4.13;;;;;;;;;;5071357;28;20040;-64
2021/10/17 10:10:53;;;;;;;23.33;4.25;;;;;;;;;;5072203;28;20021;-64
2021/10/17 10:13:19;;;;;;;12.43;3.88;;;;;;;;;;5053390;28;20028;-63
2021/10/17 10:15:45;;;;;;;22.05;4.30;;;;;;;;;;5071275;28;20472;-63
2021/10/17 10:18:12;;;;;;;19.20;4.03;;;;;;;;;;5070995;28;20032;-64
2021/10/17 10:20:41;;;;;;;19.88;4.25;;;;;;;;;;5071492;28;20532;-64
2021/10/17 10:23:08;;;;;;;16.98;4.13;;;;;;;;;;5070991;28;20055;-65
2021/10/17 10:25:35;;;;;;;15.63;3.97;;;;;;;;;;5071464;28;20025;-65
2021/10/17 10:28:01;;;;;;;12.90;4.05;;;;;;;;;;5071209;28;20024;-65
2021/10/17 10:30:31;;;;;;;12.32;4.00;;;;;;;;;;5072655;28;20032;-65
2021/10/17 10:33:05;;;;;;;27.95;4.00;;;;;;;;;;5076703;28;20024;-68
2021/10/17 10:35:33;;;;;;;32.35;4.65;;;;;;;;;;5092083;28;20020;-66
2021/10/17 10:37:59;;;;;;;31.35;4.22;;;;;;;;;;5064407;28;20112;-67
2021/10/17 10:40:25;;;;;;;27.40;4.05;;;;;;;;;;5072393;28;20028;-67
2021/10/17 10:42:52;;;;;;;20.05;3.78;;;;;;;;;;5071395;28;20045;-65
2021/10/17 10:45:25;;;;;;;16.15;3.47;;;;;;;;;;5071852;28;20031;-65
2021/10/17 10:48:06;;;;;;;30.90;4.68;;;;;;;;;;5070957;28;20032;-66
2021/10/17 10:50:37;;;;;;;14.25;3.47;;;;;;;;;;5072260;28;20017;-67
2021/10/17 10:53:03;;;;;;;18.70;3.72;;;;;;;;;;5071471;28;20024;-66
2021/10/17 10:55:51;;;;;;;34.80;3.72;;;;;;;;;;5072236;28;20078;-67
2021/10/17 10:58:36;;;;;;;14.90;3.53;;;;;;;;;;5074441;28;20029;-65
2021/10/17 11:01:03;;;;;;;23.10;3.72;;;;;;;;;;5071842;28;20037;-64
2021/10/17 11:03:42;;;;;;;20.67;3.72;;;;;;;;;;5071544;28;20045;-64
2021/10/17 11:06:08;;;;;;;22.77;3.92;;;;;;;;;;5072325;28;20017;-65
2021/10/17 11:08:34;;;;;;;11.65;3.55;;;;;;;;;;5069205;28;20028;-64
2021/10/17 11:11:01;;;;;;;20.75;3.97;;;;;;;;;;5056213;28;20099;-64
2021/10/17 11:13:28;;;;;;;33.88;4.43;;;;;;;;;;5074346;28;20024;-64
2021/10/17 11:15:55;;;;;;;20.50;4.50;;;;;;;;;;5075903;28;20024;-65
2021/10/17 11:18:28;;;;;;;24.85;4.63;;;;;;;;;;5074441;28;20027;-65
2021/10/17 11:20:54;;;;;;;20.10;4.15;;;;;;;;;;5075668;28;20052;-69
2021/10/17 11:23:22;;;;;;;24.75;4.07;;;;;;;;;;5057037;28;20079;-65
2021/10/17 11:25:55;;;;;;;28.55;4.15;;;;;;;;;;5075470;28;20044;-65
2021/10/17 11:28:22;;;;;;;21.38;4.10;;;;;;;;;;5068022;28;20095;-68
2021/10/17 11:30:48;;;;;;;26.70;3.78;;;;;;;;;;5059284;28;20112;-64
2021/10/17 11:33:21;;;;;;;37.60;4.28;;;;;;;;;;5064398;28;20456;-66
2021/10/17 11:35:48;;;;;;;24.90;4.03;;;;;;;;;;5084971;28;20109;-66
2021/10/17 11:38:16;;;;;;;28.75;3.67;;;;;;;;;;5056608;28;20385;-66
2021/10/17 11:40:42;;;;;;;25.27;4.28;;;;;;;;;;5074987;28;20031;-65
2021/10/17 11:43:08;;;;;;;26.83;3.83;;;;;;;;;;5073751;28;20025;-64
2021/10/17 11:45:39;;;;;;;37.30;4.03;;;;;;;;;;5074897;28;20020;-64
2021/10/17 11:48:06;;;;;;;18.30;4.15;;;;;;;;;;5068791;28;20066;-64
2021/10/17 11:50:37;;;;;;;37.90;3.58;;;;;;;;;;5075447;28;20138;-64
2021/10/17 11:53:04;;;;;;;25.73;3.58;;;;;;;;;;5083209;28;20027;-65
2021/10/17 11:55:46;;;;;;;19.92;3.65;;;;;;;;;;5080706;28;20020;-64
2021/10/17 11:58:15;;;;;;;20.70;3.47;;;;;;;;;;5078442;28;20036;-64
2021/10/17 12:00:42;;;;;;;15.38;3.42;;;;;;;;;;5064775;28;20395;-65
2021/10/17 12:03:08;;;;;;;20.23;4.05;;;;;;;;;;5080500;28;20119;-65
2021/10/17 12:05:36;;;;;;;21.17;3.65;;;;;;;;;;5081131;28;20031;-65
2021/10/17 12:08:02;;;;;;;23.80;3.55;;;;;;;;;;5066370;28;20024;-66
2021/10/17 12:10:29;;;;;;;31.15;3.83;;;;;;;;;;5085070;28;20384;-64
2021/10/17 12:12:59;;;;;;;23.10;3.70;;;;;;;;;;5076463;28;20013;-64
2021/10/17 12:15:25;;;;;;;18.70;3.83;;;;;;;;;;5074745;28;20025;-66
2021/10/17 12:17:58;;;;;;;20.88;3.10;;;;;;;;;;5075916;28;20025;-65
2021/10/17 12:20:26;;;;;;;18.17;3.60;;;;;;;;;;5074606;28;20058;-65
2021/10/17 12:22:53;;;;;;;48.05;4.90;;;;;;;;;;5072353;28;20631;-66
2021/10/17 12:25:19;;;;;;;42.35;3.17;;;;;;;;;;5074769;28;20020;-65
2021/10/17 12:27:46;;;;;;;19.58;3.67;;;;;;;;;;5073240;28;20024;-65
2021/10/17 12:30:14;;;;;;;20.58;3.17;;;;;;;;;;5074312;28;20024;-65
2021/10/17 12:32:43;;;;;;;35.03;3.40;;;;;;;;;;5073365;28;20478;-67
2021/10/17 12:35:35;;;;;;;26.10;3.42;;;;;;;;;;5073979;28;20468;-67
2021/10/17 12:38:14;;;;;;;17.65;3.45;;;;;;;;;;5070384;28;20038;-72
2021/10/17 12:40:51;;;;;;;15.98;3.50;;;;;;;;;;5074410;28;20424;-69
2021/10/17 12:43:22;;;;;;;28.60;3.60;;;;;;;;;;5074301;28;20052;-68
2021/10/17 12:45:49;;;;;;;18.05;3.45;;;;;;;;;;5074697;28;20016;-72
2021/10/17 12:48:21;;;;;;;19.00;2.83;;;;;;;;;;5074196;28;20028;-69
2021/10/17 12:50:47;;;;;;;25.75;3.60;;;;;;;;;;5074401;28;20051;-72
2021/10/17 12:53:14;;;;;;;12.15;2.80;;;;;;;;;;5073132;28;20035;-71
2021/10/17 12:55:41;;;;;;;23.45;3.20;;;;;;;;;;5074381;28;20100;-69
2021/10/17 12:58:17;;;;;;;13.73;3.40;;;;;;;;;;5074565;28;20052;-72
2021/10/17 13:00:44;;;;;;;13.55;2.90;;;;;;;;;;5073748;28;20052;-71
2021/10/17 13:03:14;;;;;;;9.05;3.08;;;;;;;;;;5074357;28;20036;-71
2021/10/17 13:05:47;;;;;;;23.58;3.00;;;;;;;;;;5073685;28;20468;-72
2021/10/17 13:08:13;;;;;;;26.70;3.30;;;;;;;;;;5077613;28;20044;-71
2021/10/17 13:10:39;;;;;;;10.45;2.60;;;;;;;;;;5073907;28;20476;-73
2021/10/17 13:13:13;;;;;;;16.00;2.90;;;;;;;;;;5074358;28;20035;-72
2021/10/17 13:15:39;;;;;;;20.30;3.15;;;;;;;;;;5074111;28;20028;-71
2021/10/17 13:18:06;;;;;;;16.02;2.85;;;;;;;;;;5074359;28;20031;-74
2021/10/17 13:20:38;;;;;;;17.85;3.10;;;;;;;;;;5073543;28;20488;-72
2021/10/17 13:23:04;;;;;;;9.50;2.87;;;;;;;;;;5073915;28;20032;-71
2021/10/17 13:25:31;;;;;;;8.98;3.13;;;;;;;;;;5073275;28;20111;-67
2021/10/17 13:27:58;;;;;;;10.45;2.72;;;;;;;;;;5072872;28;20025;-69
2021/10/17 13:30:25;;;;;;;13.57;2.85;;;;;;;;;;5072204;28;20020;-69
2021/10/17 13:32:51;;;;;;;12.75;2.90;;;;;;;;;;5073015;28;20021;-71
2021/10/17 13:35:17;;;;;;;7.20;2.85;;;;;;;;;;5072654;28;20035;-69
2021/10/17 13:37:44;;;;;;;9.25;2.90;;;;;;;;;;5061158;28;20025;-75
2021/10/17 13:40:11;;;;;;;5.35;2.45;;;;;;;;;;5073207;28;20021;-73
2021/10/17 13:42:38;;;;;;;12.70;2.92;;;;;;;;;;5072976;28;20422;-70
2021/10/17 13:45:04;;;;;;;11.52;2.22;;;;;;;;;;5072755;28;20040;-67
2021/10/17 13:47:30;;;;;;;22.65;3.80;;;;;;;;;;5071860;28;20070;-66
2021/10/17 13:49:56;;;;;;;27.33;3.40;;;;;;;;;;5072574;28;20047;-70
2021/10/17 13:52:22;;;;;;;13.52;2.92;;;;;;;;;;5075296;28;20029;-69
2021/10/17 13:54:48;;;;;;;15.15;2.95;;;;;;;;;;5073123;28;20493;-70
2021/10/17 13:57:14;;;;;;;20.83;3.25;;;;;;;;;;5073002;28;20024;-71
2021/10/17 13:59:40;;;;;;;24.15;2.85;;;;;;;;;;5072791;28;20302;-67
2021/10/17 14:02:06;;;;;;;13.48;2.63;;;;;;;;;;5072744;28;20083;-69
2021/10/17 14:04:33;;;;;;;41.53;4.03;;;;;;;;;;5073072;28;20147;-66
2021/10/17 14:06:59;;;;;;;16.90;3.60;;;;;;;;;;5071463;28;20488;-68
2021/10/17 14:09:26;;;;;;;20.92;3.30;;;;;;;;;;5071486;28;20419;-66
2021/10/17 14:11:52;;;;;;;37.10;4.32;;;;;;;;;;5072541;28;20036;-68
2021/10/17 14:14:18;;;;;;;45.63;3.97;;;;;;;;;;5073093;28;20024;-68
2021/10/17 14:16:45;;;;;;;43.75;3.78;;;;;;;;;;5072629;28;20024;-68
2021/10/17 14:19:11;;;;;;;77.07;4.40;;;;;;;;;;5072882;28;20024;-70
2021/10/17 14:21:37;;;;;;;102.60;5.30;;;;;;;;;;5072962;28;20068;-66
2021/10/17 14:24:03;;;;;;;82.03;4.60;;;;;;;;;;5072838;28;20027;-66
2021/10/17 14:26:29;;;;;;;73.05;4.85;;;;;;;;;;5073022;28;20033;-68
2021/10/17 14:28:55;;;;;;;72.30;4.70;;;;;;;;;;5072804;28;20020;-65
2021/10/17 14:31:21;;;;;;;95.50;6.05;;;;;;;;;;5072365;28;20365;-67
2021/10/17 14:33:47;;;;;;;84.80;4.80;;;;;;;;;;5071249;28;20032;-66